Time;durP1;ratioP1;P1;durP2;ratioP2;P2;SDS_P1;SDS_P2;PMS_P1;PMS_P2;Temp;Humidity;BMP_temperature;BMP_pressure;BME280_temperature;BME280_humidity;BME280_pressure;Samples;Min_cycle;Max_cycle;Signal;HPM_P1;HPM_P2
2023/04/15 00:01:36;;;;;;;5.07;1.42;;;9.20;47.20;;;;;;6096144;23;20451;-82
2023/04/15 00:04:03;;;;;;;5.87;1.50;;;9.20;46.60;;;;;;6097290;23;20382;-83
2023/04/15 00:06:30;;;;;;;6.70;2.13;;;9.20;46.50;;;;;;6097178;23;20388;-83
2023/04/15 00:08:57;;;;;;;3.38;1.50;;;9.20;46.50;;;;;;6096825;23;20375;-83
2023/04/15 00:11:24;;;;;;;2.95;1.30;;;9.20;46.40;;;;;;6097230;23;20376;-82
2023/04/15 00:13:51;;;;;;;3.45;1.08;;;9.10;46.90;;;;;;6096778;23;20372;-83
2023/04/15 00:16:18;;;;;;;1.95;0.80;;;9.10;46.70;;;;;;6099028;23;20411;-82
2023/04/15 00:18:45;;;;;;;2.23;0.83;;;9.00;46.70;;;;;;6098061;23;20383;-83
2023/04/15 00:21:13;;;;;;;2.15;0.90;;;9.00;47.10;;;;;;6099185;23;20430;-82
2023/04/15 00:23:40;;;;;;;2.90;0.80;;;8.90;47.60;;;;;;6097299;23;20379;-83
2023/04/15 00:26:07;;;;;;;2.23;1.00;;;8.80;48.00;;;;;;6099050;23;20800;-82
2023/04/15 00:28:34;;;;;;;1.30;0.70;;;8.80;48.00;;;;;;6124653;23;20418;-83
2023/04/15 00:31:01;;;;;;;1.70;0.80;;;8.70;47.70;;;;;;6122646;23;20359;-83
2023/04/15 00:33:28;;;;;;;1.63;0.57;;;8.70;48.30;;;;;;6098963;23;20453;-83
2023/04/15 00:35:54;;;;;;;1.55;0.57;;;8.60;48.20;;;;;;6097838;23;20722;-83
2023/04/15 00:38:22;;;;;;;2.05;0.60;;;8.60;47.90;;;;;;6098804;23;20443;-83
2023/04/15 00:40:49;;;;;;;2.40;0.82;;;8.50;48.80;;;;;;6098270;23;20372;-83
2023/04/15 00:43:16;;;;;;;0.80;0.50;;;8.50;49.40;;;;;;6091028;23;20456;-83
2023/04/15 00:45:43;;;;;;;1.42;0.60;;;8.40;49.50;;;;;;6094373;23;20444;-83
2023/04/15 00:48:11;;;;;;;1.67;0.70;;;8.40;49.90;;;;;;6098730;23;20379;-83
2023/04/15 00:50:37;;;;;;;1.33;0.50;;;8.30;49.20;;;;;;6123901;23;20376;-82
2023/04/15 00:53:05;;;;;;;1.70;0.73;;;8.40;50.90;;;;;;6098413;23;20434;-83
2023/04/15 00:55:31;;;;;;;0.90;0.50;;;8.40;49.50;;;;;;6098673;23;20466;-83
2023/04/15 00:57:58;;;;;;;1.70;0.50;;;8.40;49.00;;;;;;6097443;23;20372;-83
2023/04/15 01:00:26;;;;;;;0.95;0.55;;;8.30;49.20;;;;;;6099422;23;20909;-84
2023/04/15 19:55:24;;;;;;;2.00;1.20;;;12.60;51.00;;;;;;6078622;23;20368;-76
2023/04/15 19:57:51;;;;;;;4.15;1.40;;;12.50;51.40;;;;;;6083685;23;20407;-76
2023/04/15 20:00:17;;;;;;;2.42;1.08;;;12.40;52.00;;;;;;6114294;23;20384;-77
2023/04/15 20:02:44;;;;;;;3.08;1.13;;;12.30;52.10;;;;;;6107179;23;20377;-77
2023/04/15 20:05:12;;;;;;;2.58;1.33;;;12.20;52.30;;;;;;6091991;23;20389;-77
2023/04/15 20:07:41;;;;;;;3.42;1.42;;;12.10;52.70;;;;;;6091013;23;20749;-77
2023/04/15 20:10:11;;;;;;;3.50;1.88;;;12.00;52.70;;;;;;6091759;23;20748;-77
2023/04/15 20:12:40;;;;;;;4.57;2.80;;;12.00;53.60;;;;;;6091529;23;20374;-77
2023/04/15 20:15:18;;;;;;;5.60;3.25;;;11.90;54.40;;;;;;6092413;23;20457;-77
2023/04/15 20:17:46;;;;;;;4.20;2.85;;;11.80;54.30;;;;;;6092151;23;20505;-77
2023/04/15 20:20:13;;;;;;;4.68;2.85;;;11.80;55.30;;;;;;6091915;23;20420;-77
2023/04/15 20:22:40;;;;;;;5.90;2.90;;;11.70;55.10;;;;;;6090741;23;20685;-77
2023/04/15 20:25:08;;;;;;;5.13;2.72;;;11.70;56.60;;;;;;6091513;23;20397;-76
2023/04/15 20:27:36;;;;;;;4.20;2.20;;;11.60;56.50;;;;;;6091774;23;20693;-77
2023/04/15 20:30:03;;;;;;;5.18;1.98;;;11.60;56.60;;;;;;6091207;23;20843;-77
2023/04/15 20:32:34;;;;;;;4.35;1.50;;;11.40;59.00;;;;;;6092871;23;20768;-77
2023/04/15 20:35:04;;;;;;;4.00;1.60;;;11.30;57.40;;;;;;6092812;23;20449;-77
2023/04/15 20:37:32;;;;;;;3.72;1.80;;;11.20;58.60;;;;;;6093355;23;20417;-76
2023/04/15 20:39:59;;;;;;;3.20;1.80;;;11.20;59.90;;;;;;6116873;23;20441;-77
2023/04/15 20:42:30;;;;;;;4.47;2.22;;;11.10;60.40;;;;;;6093831;23;20381;-77
2023/04/15 20:44:58;;;;;;;4.93;2.05;;;11.00;61.90;;;;;;6094280;23;20750;-78
2023/04/15 20:47:25;;;;;;;5.45;2.58;;;11.00;60.70;;;;;;6094779;23;20382;-77
2023/04/15 20:49:52;;;;;;;4.88;2.28;;;10.90;61.00;;;;;;6092952;23;20453;-77
2023/04/15 20:52:20;;;;;;;3.33;1.97;;;10.90;61.50;;;;;;6093656;23;20425;-76
2023/04/15 20:54:46;;;;;;;2.90;1.92;;;10.90;62.90;;;;;;6093564;23;20828;-77
2023/04/15 20:57:13;;;;;;;4.32;1.75;;;10.80;64.50;;;;;;6116645;23;20419;-77
2023/04/15 20:59:40;;;;;;;2.45;1.30;;;10.80;63.60;;;;;;6097988;23;20430;-77
2023/04/15 21:02:07;;;;;;;3.30;1.67;;;10.70;63.00;;;;;;6123933;23;20439;-77
2023/04/15 21:04:36;;;;;;;4.50;1.98;;;10.70;64.10;;;;;;6087933;23;20380;-77
2023/04/15 21:07:03;;;;;;;3.97;2.35;;;10.60;65.10;;;;;;6097167;23;20422;-77
2023/04/15 21:09:30;;;;;;;3.33;2.13;;;10.60;66.70;;;;;;6098746;23;20470;-78
2023/04/15 21:11:57;;;;;;;5.60;2.70;;;10.60;65.20;;;;;;6122772;23;20488;-77
2023/04/15 21:14:28;;;;;;;14.93;6.22;;;10.50;65.60;;;;;;6099028;23;20380;-76
2023/04/15 21:16:57;;;;;;;8.27;4.80;;;10.50;69.70;;;;;;6123601;23;20376;-77
2023/04/15 21:19:24;;;;;;;6.23;3.73;;;10.40;68.20;;;;;;6124708;23;20426;-77
2023/04/15 21:21:51;;;;;;;6.07;2.75;;;10.30;69.90;;;;;;6097767;23;20439;-78
2023/04/15 21:24:18;;;;;;;6.55;2.92;;;10.30;72.30;;;;;;6098535;23;20403;-77
2023/04/15 21:26:45;;;;;;;4.67;2.77;;;10.20;74.10;;;;;;6097305;23;20742;-77
2023/04/15 21:29:12;;;;;;;4.03;2.30;;;10.20;70.00;;;;;;6098105;23;20713;-77
2023/04/15 21:31:39;;;;;;;3.75;2.13;;;10.10;69.30;;;;;;6098736;23;20372;-77
2023/04/15 21:34:06;;;;;;;4.45;2.50;;;10.00;71.00;;;;;;6123469;23;20368;-77
2023/04/15 21:36:34;;;;;;;4.18;2.67;;;9.90;70.20;;;;;;6098483;23;20763;-77
2023/04/15 21:39:00;;;;;;;5.05;2.70;;;9.90;69.40;;;;;;6085121;23;20427;-77
2023/04/15 21:41:28;;;;;;;4.35;2.47;;;9.70;74.10;;;;;;6098401;23;20379;-77
2023/04/15 21:43:54;;;;;;;5.28;2.30;;;9.70;74.70;;;;;;6097126;23;20718;-76
2023/04/15 21:46:21;;;;;;;3.73;2.13;;;9.60;75.30;;;;;;6098091;23;20489;-77
2023/04/15 21:48:58;;;;;;;5.93;2.55;;;9.50;75.40;;;;;;6099112;23;20387;-77
2023/04/15 21:51:25;;;;;;;5.68;2.55;;;9.40;73.80;;;;;;6097985;23;20714;-77
2023/04/15 21:53:52;;;;;;;3.55;2.33;;;9.30;75.00;;;;;;6097102;23;20734;-77
2023/04/15 21:56:21;;;;;;;4.13;2.70;;;9.30;76.70;;;;;;6123229;23;20454;-77
2023/04/15 21:58:48;;;;;;;5.03;2.30;;;9.20;80.00;;;;;;6096920;23;20455;-77
2023/04/15 22:01:16;;;;;;;4.75;2.65;;;9.10;79.50;;;;;;6098328;23;20403;-76
2023/04/15 22:03:44;;;;;;;17.60;9.20;;;9.00;77.70;;;;;;6097854;23;20386;-77
2023/04/15 22:06:12;;;;;;;82.70;42.13;;;9.00;78.10;;;;;;6080513;23;20373;-77
2023/04/15 22:08:42;;;;;;;42.38;21.92;;;8.90;82.10;;;;;;6069390;23;20382;-77
2023/04/15 22:11:25;;;;;;;30.20;15.55;;;8.80;84.20;;;;;;6099937;23;20439;-77
2023/04/15 22:13:54;;;;;;;10.52;4.72;;;8.80;84.60;;;;;;6098156;23;20376;-77
2023/04/15 22:16:21;;;;;;;5.40;1.95;;;8.80;83.20;;;;;;6122071;23;20399;-77
2023/04/15 22:18:48;;;;;;;3.60;1.23;;;9.00;79.00;;;;;;6097661;23;20466;-77
2023/04/15 22:21:15;;;;;;;3.50;1.00;;;9.30;76.00;;;;;;6096563;23;20407;-77
2023/04/15 22:23:46;;;;;;;3.85;1.40;;;9.70;73.00;;;;;;6097638;23;20391;-77
2023/04/15 22:26:13;;;;;;;2.65;1.20;;;10.00;70.70;;;;;;6084351;23;20424;-77
2023/04/15 22:28:40;;;;;;;3.28;1.40;;;10.20;68.70;;;;;;6097393;23;20399;-77
2023/04/15 22:31:07;;;;;;;3.92;1.88;;;10.50;68.00;;;;;;6096832;23;20376;-77
2023/04/15 22:33:34;;;;;;;5.55;2.78;;;10.80;67.20;;;;;;6123055;23;20399;-77
2023/04/15 22:36:01;;;;;;;7.47;3.33;;;11.00;66.50;;;;;;6096835;23;20494;-77
2023/04/15 22:38:28;;;;;;;7.93;4.53;;;11.30;66.20;;;;;;6097375;23;20431;-77
2023/04/15 22:40:55;;;;;;;9.15;4.50;;;11.60;64.90;;;;;;6097805;23;20430;-77
2023/04/15 22:43:22;;;;;;;8.48;4.95;;;11.80;63.60;;;;;;6121829;23;20435;-77
2023/04/15 22:45:49;;;;;;;6.50;4.13;;;12.00;63.00;;;;;;6097706;23;20406;-77
2023/04/15 22:48:17;;;;;;;6.28;3.70;;;12.20;61.80;;;;;;6084205;23;20378;-77
2023/04/15 22:50:44;;;;;;;8.27;4.55;;;12.30;61.40;;;;;;6088383;23;20370;-77
2023/04/15 22:53:12;;;;;;;7.50;3.43;;;12.40;61.30;;;;;;6119269;23;20427;-77
2023/04/15 22:55:38;;;;;;;4.13;2.53;;;12.40;59.40;;;;;;6096744;23;20379;-76
2023/04/15 22:58:05;;;;;;;4.78;2.60;;;12.30;58.30;;;;;;6096615;23;20479;-77
2023/04/15 23:00:32;;;;;;;4.78;3.10;;;12.10;58.70;;;;;;6096729;23;20395;-76
2023/04/15 23:02:59;;;;;;;11.35;6.50;;;12.00;58.90;;;;;;6122768;23;20463;-77
2023/04/15 23:05:26;;;;;;;5.72;3.33;;;11.70;59.80;;;;;;6096838;23;20806;-77
2023/04/15 23:07:53;;;;;;;16.48;9.25;;;11.50;59.90;;;;;;6097670;23;20379;-77
2023/04/15 23:10:20;;;;;;;5.72;3.30;;;11.40;60.80;;;;;;6096886;23;20438;-77
2023/04/15 23:12:47;;;;;;;4.55;2.67;;;11.20;61.60;;;;;;6122931;23;20384;-77
2023/04/15 23:15:14;;;;;;;9.13;2.63;;;11.10;61.40;;;;;;6096147;23;20462;-77
2023/04/15 23:17:42;;;;;;;4.15;2.97;;;11.00;61.70;;;;;;6097111;23;20399;-77
2023/04/15 23:20:10;;;;;;;5.67;3.07;;;10.90;63.70;;;;;;6096453;23;20382;-77
2023/04/15 23:22:37;;;;;;;6.50;2.58;;;10.70;64.80;;;;;;6090450;23;20374;-77
2023/04/15 23:25:05;;;;;;;5.47;2.45;;;10.60;63.60;;;;;;6091032;23;20905;-77
2023/04/15 23:27:32;;;;;;;5.05;2.45;;;10.50;64.30;;;;;;6097305;23;20368;-77
2023/04/15 23:29:59;;;;;;;4.68;2.20;;;10.40;64.30;;;;;;6086553;23;20421;-77
2023/04/15 23:32:26;;;;;;;4.70;2.38;;;10.30;64.90;;;;;;6095791;23;20748;-77
2023/04/15 23:34:53;;;;;;;3.60;2.30;;;10.20;65.00;;;;;;6097607;23;20375;-77
2023/04/15 23:37:20;;;;;;;4.00;1.77;;;10.20;66.90;;;;;;6096431;23;20380;-77
2023/04/15 23:39:47;;;;;;;3.15;1.77;;;10.10;65.70;;;;;;6122636;23;20474;-77
2023/04/15 23:42:16;;;;;;;3.97;2.10;;;10.00;67.10;;;;;;6096266;23;20476;-77
2023/04/15 23:44:43;;;;;;;2.33;1.60;;;9.90;66.60;;;;;;6097201;23;20370;-77
2023/04/15 23:47:10;;;;;;;4.50;2.10;;;9.90;66.60;;;;;;6096109;23;20750;-77
2023/04/15 23:49:39;;;;;;;3.33;2.20;;;9.90;67.10;;;;;;6097242;23;20415;-76
2023/04/15 23:52:06;;;;;;;6.22;2.92;;;9.80;69.60;;;;;;6122021;23;20372;-77
2023/04/15 23:54:33;;;;;;;4.13;2.22;;;9.60;71.10;;;;;;6097282;23;20422;-76
2023/04/15 23:57:02;;;;;;;3.10;1.70;;;9.60;69.50;;;;;;6077426;23;20373;-76
2023/04/15 23:59:29;;;;;;;5.18;2.33;;;9.50;68.80;;;;;;6067487;23;20440;-77
